Weather at Docken Field

Public forecast

Using degrees Fahrenheit for public forecast. Weather courtesy of forecast.io.

Closest aviation weather report (METAR) to Docken Field

Closest report is Middleton Municipal Morey Field, 12.2 nm (22.7 km) NE. Retrieved 2021/06/25 04:35 UTC (15 minutes ago):

KC29 250435Z AUTO 04004KT 10SM OVC013 22/19 A2997 RMK AO1 T02210194

Closest aviation forecast (TAF) to Docken Field

Closest forecast is Dane County Regional Truax Field, 20.3 nm (37.6 km) ENE. Retrieved 2021-06-25 00:46 UTC (4 hours ago):

TAF KMSN 242344Z 2500/2524 20012G18KT P6SM OVC080 FM250200 19008KT P6SM OVC040 FM250500 18004KT P6SM OVC009 FM251000 16003KT 4SM BR OVC003 FM251500 27005KT P6SM OVC006 FM251800 29005KT P6SM BKN019